Time;durP1;ratioP1;P1;durP2;ratioP2;P2;SDS_P1;SDS_P2;PMS_P1;PMS_P2;Temp;Humidity;BMP_temperature;BMP_pressure;BME280_temperature;BME280_humidity;BME280_pressure;Samples;Min_cycle;Max_cycle;Signal;HPM_P1;HPM_P2
2021/05/11 00:01:16;;;;;;;;;;;;;;;20.80;44.51;101377.72;5038681;28;740;-60
2021/05/11 00:03:43;;;;;;;;;;;;;;;20.77;44.65;101367.22;5038925;28;843;-59
2021/05/11 00:06:09;;;;;;;;;;;;;;;20.97;44.35;101363.47;5038526;28;1030;-60
2021/05/11 00:08:34;;;;;;;;;;;;;;;20.73;44.73;101363.38;5038280;28;879;-46
2021/05/11 00:11:00;;;;;;;;;;;;;;;20.78;44.72;101362.53;5039205;28;1918;-59
2021/05/11 00:13:25;;;;;;;;;;;;;;;20.90;44.24;101363.00;5038566;28;780;-47
2021/05/11 00:15:50;;;;;;;;;;;;;;;20.85;44.50;101363.84;5038454;28;725;-59
2021/05/11 00:18:16;;;;;;;;;;;;;;;20.88;44.27;101353.34;5038523;28;788;-50
2021/05/11 00:20:41;;;;;;;;;;;;;;;20.72;44.91;101350.69;5037899;28;1001;-60
2021/05/11 00:23:07;;;;;;;;;;;;;;;20.74;44.79;101348.44;5038503;28;768;-52
2021/05/11 00:25:32;;;;;;;;;;;;;;;20.85;44.38;101347.25;5038431;28;792;-59
2021/05/11 00:27:58;;;;;;;;;;;;;;;20.73;44.56;101341.25;5038355;28;756;-59
2021/05/11 00:30:23;;;;;;;;;;;;;;;20.93;44.13;101334.75;5036834;28;744;-54
2021/05/11 00:32:49;;;;;;;;;;;;;;;20.73;44.75;101343.22;5037309;28;1914;-58
2021/05/11 00:35:15;;;;;;;;;;;;;;;20.60;45.17;101337.19;5037807;28;939;-53
2021/05/11 00:37:40;;;;;;;;;;;;;;;20.87;44.37;101324.84;5038182;28;772;-57
2021/05/11 00:40:06;;;;;;;;;;;;;;;20.54;45.15;101323.69;5038139;28;816;-58
2021/05/11 00:42:32;;;;;;;;;;;;;;;20.41;45.62;101326.00;5038028;28;771;-46
2021/05/11 00:44:57;;;;;;;;;;;;;;;20.51;45.30;101327.88;5038211;28;732;-57
2021/05/11 00:47:23;;;;;;;;;;;;;;;20.57;45.27;101317.63;5037974;28;752;-58
2021/05/11 00:49:49;;;;;;;;;;;;;;;20.68;44.80;101325.56;5038243;28;768;-59
2021/05/11 00:52:14;;;;;;;;;;;;;;;20.51;45.25;101309.34;5037634;28;1918;-55
2021/05/11 00:54:40;;;;;;;;;;;;;;;20.59;45.03;101307.09;5036729;28;807;-58
2021/05/11 00:57:05;;;;;;;;;;;;;;;20.42;45.51;101305.53;5037135;28;775;-48
2021/05/11 00:59:31;;;;;;;;;;;;;;;20.59;44.97;101310.66;5038156;28;748;-59
2021/05/11 01:01:57;;;;;;;;;;;;;;;20.57;45.14;101309.31;5037629;28;815;-54
2021/05/11 01:04:22;;;;;;;;;;;;;;;20.45;45.29;101307.72;5037918;28;772;-60
2021/05/11 01:06:48;;;;;;;;;;;;;;;20.38;45.38;101309.19;5037022;28;955;-60
2021/05/11 01:09:13;;;;;;;;;;;;;;;20.08;46.35;101300.78;5037946;28;728;-50
2021/05/11 01:11:39;;;;;;;;;;;;;;;20.26;45.62;101299.31;5037684;28;1910;-58
2021/05/11 01:14:04;;;;;;;;;;;;;;;20.42;45.44;101308.31;5037866;28;775;-50
2021/05/11 01:16:32;;;;;;;;;;;;;;;20.45;45.20;101298.63;5037461;28;736;-58
2021/05/11 01:19:06;;;;;;;;;;;;;;;20.46;45.06;101292.00;5037752;28;756;-58
2021/05/11 01:24:12;;;;;;;;;;;;;;;20.42;45.44;101288.97;5037180;28;784;-58
2021/05/11 01:47:31;;;;;;;;;;;;;;;20.63;44.69;101278.59;5037195;28;781;-48
2021/05/11 01:52:57;;;;;;;;;;;;;;;20.44;45.13;101285.91;5036096;28;1902;-57
2021/05/11 01:55:37;;;;;;;;;;;;;;;20.64;44.50;101280.25;5036898;28;756;-54
2021/05/11 02:22:49;;;;;;;;;;;;;;;20.35;45.03;101269.94;5036148;28;744;-57
2021/05/11 02:25:15;;;;;;;;;;;;;;;20.26;45.44;101263.41;5036508;28;840;-47
2021/05/11 02:27:41;;;;;;;;;;;;;;;20.26;45.41;101257.03;5035885;28;759;-59
2021/05/11 02:30:10;;;;;;;;;;;;;;;20.65;44.67;101256.19;5036640;28;823;-54
2021/05/11 02:32:38;;;;;;;;;;;;;;;20.32;45.38;101253.16;5035981;28;1914;-49
2021/05/11 02:35:04;;;;;;;;;;;;;;;20.53;44.82;101253.81;5035439;28;956;-56
2021/05/11 02:37:30;;;;;;;;;;;;;;;20.51;44.62;101251.34;5036108;28;768;-48
2021/05/11 02:39:55;;;;;;;;;;;;;;;20.54;44.74;101251.88;5036062;28;744;-47
2021/05/11 02:42:20;;;;;;;;;;;;;;;20.27;45.21;101253.19;5035808;28;732;-59
2021/05/11 02:44:47;;;;;;;;;;;;;;;20.29;45.26;101251.78;5036166;28;794;-58
2021/05/11 02:47:13;;;;;;;;;;;;;;;20.41;44.98;101250.59;5035875;28;863;-58
2021/05/11 02:49:42;;;;;;;;;;;;;;;20.30;45.44;101258.13;5036076;28;795;-58
2021/05/11 02:52:08;;;;;;;;;;;;;;;20.29;45.42;101254.53;5035558;28;1984;-58
2021/05/11 02:54:33;;;;;;;;;;;;;;;20.43;45.03;101259.44;5036606;28;812;-53
2021/05/11 02:56:59;;;;;;;;;;;;;;;20.45;44.79;101262.72;5040364;28;860;-58
2021/05/11 02:59:24;;;;;;;;;;;;;;;20.11;45.79;101260.75;5039711;28;744;-47
2021/05/11 03:01:50;;;;;;;;;;;;;;;20.47;44.64;101258.56;5040137;28;799;-58
2021/05/11 03:04:15;;;;;;;;;;;;;;;20.31;45.31;101262.53;5040016;28;828;-50
2021/05/11 03:06:40;;;;;;;;;;;;;;;20.33;45.01;101263.09;5039177;28;1017;-58
2021/05/11 03:09:06;;;;;;;;;;;;;;;20.39;45.07;101259.16;5039861;28;756;-58
2021/05/11 03:11:31;;;;;;;;;;;;;;;20.35;45.10;101260.84;5039848;28;1906;-58
2021/05/11 03:13:57;;;;;;;;;;;;;;;20.31;44.98;101262.53;5039373;28;836;-59
2021/05/11 03:16:24;;;;;;;;;;;;;;;20.25;45.34;101266.47;5039470;28;832;-42
2021/05/11 03:18:49;;;;;;;;;;;;;;;20.29;45.23;101264.78;5039798;28;832;-47
2021/05/11 03:21:15;;;;;;;;;;;;;;;20.30;45.20;101263.66;5038853;28;1222;-47
2021/05/11 03:23:40;;;;;;;;;;;;;;;20.51;44.43;101262.41;5039953;28;803;-59
2021/05/11 03:26:05;;;;;;;;;;;;;;;20.27;44.97;101269.75;5039495;28;748;-47
2021/05/11 03:28:31;;;;;;;;;;;;;;;20.35;44.91;101266.38;5039416;28;514;-57
2021/05/11 03:30:56;;;;;;;;;;;;;;;20.17;45.45;101265.97;5039508;28;1918;-45
2021/05/11 03:33:22;;;;;;;;;;;;;;;20.39;44.83;101269.41;5039116;28;1120;-56
2021/05/11 03:35:47;;;;;;;;;;;;;;;20.06;45.55;101258.81;5038385;28;884;-55
2021/05/11 03:38:13;;;;;;;;;;;;;;;20.25;45.35;101260.94;5038861;28;883;-58
2021/05/11 03:40:39;;;;;;;;;;;;;;;20.35;45.08;101256.13;5039148;28;759;-48
2021/05/11 03:43:09;;;;;;;;;;;;;;;20.26;45.16;101260.66;5038981;28;867;-49
2021/05/11 03:45:43;;;;;;;;;;;;;;;20.08;45.73;101267.66;5039356;28;804;-49
2021/05/11 03:48:08;;;;;;;;;;;;;;;20.31;45.24;101265.31;5038927;28;843;-47
2021/05/11 03:50:34;;;;;;;;;;;;;;;20.20;45.15;101252.69;5038188;28;979;-51
2021/05/11 03:53:01;;;;;;;;;;;;;;;20.06;45.55;101261.59;5039099;28;1959;-50
2021/05/11 03:55:26;;;;;;;;;;;;;;;20.31;44.92;101270.81;5038863;28;771;-47
2021/05/11 03:57:52;;;;;;;;;;;;;;;20.37;45.00;101269.69;5038709;28;728;-46
2021/05/11 04:00:17;;;;;;;;;;;;;;;20.44;44.71;101266.59;5038929;28;737;-54
2021/05/11 04:02:43;;;;;;;;;;;;;;;20.62;44.23;101267.81;5030696;28;1462;-58
2021/05/11 04:05:10;;;;;;;;;;;;;;;20.37;44.81;101280.75;5038100;28;959;-57
2021/05/11 04:07:40;;;;;;;;;;;;;;;20.46;44.75;101267.94;5018236;28;1269;-47
2021/05/11 04:10:17;;;;;;;;;;;;;;;20.28;44.97;101268.63;5018956;28;784;-47
2021/05/11 04:17:55;;;;;;;;;;;;;;;20.37;44.94;101272.47;5030916;28;740;-58
2021/05/11 04:20:21;;;;;;;;;;;;;;;20.44;44.60;101280.38;5028316;28;1107;-51
2021/05/11 04:22:46;;;;;;;;;;;;;;;20.48;44.55;101279.56;5038415;28;835;-53
2021/05/11 04:25:12;;;;;;;;;;;;;;;20.59;44.51;101276.69;5038616;28;780;-54
2021/05/11 04:27:37;;;;;;;;;;;;;;;20.41;44.71;101273.53;5038188;28;760;-57
2021/05/11 04:30:04;;;;;;;;;;;;;;;20.53;44.39;101278.69;5038315;28;783;-56
2021/05/11 04:32:29;;;;;;;;;;;;;;;20.38;44.95;101273.25;5033385;28;1956;-52
2021/05/11 04:34:55;;;;;;;;;;;;;;;20.44;44.84;101286.75;5038178;28;776;-55
2021/05/11 04:37:20;;;;;;;;;;;;;;;20.47;44.78;101291.69;5037734;28;998;-53
2021/05/11 04:39:45;;;;;;;;;;;;;;;20.44;44.91;101289.53;5038259;28;737;-49
2021/05/11 04:42:11;;;;;;;;;;;;;;;20.64;44.23;101296.00;5037644;28;811;-47
2021/05/11 04:44:37;;;;;;;;;;;;;;;20.77;44.05;101284.31;5021012;28;1103;-48
2021/05/11 04:47:22;;;;;;;;;;;;;;;20.64;44.35;101293.25;5038075;28;748;-59
2021/05/11 04:49:48;;;;;;;;;;;;;;;20.61;44.37;101291.06;5037612;28;787;-48
2021/05/11 04:52:13;;;;;;;;;;;;;;;20.71;44.09;101288.22;5037540;28;1930;-59
2021/05/11 04:54:39;;;;;;;;;;;;;;;20.88;43.82;101281.47;5038673;28;803;-45
2021/05/11 04:57:04;;;;;;;;;;;;;;;20.96;43.75;101278.06;5037336;28;840;-46
2021/05/11 04:59:30;;;;;;;;;;;;;;;21.07;43.33;101276.84;5038035;28;776;-54
2021/05/11 05:01:56;;;;;;;;;;;;;;;20.95;43.51;101273.66;5037948;28;926;-53
2021/05/11 05:04:22;;;;;;;;;;;;;;;21.05;43.40;101276.31;5037468;28;776;-58
2021/05/11 05:06:47;;;;;;;;;;;;;;;21.12;43.24;101278.72;5037383;28;958;-45
2021/05/11 05:09:13;;;;;;;;;;;;;;;21.30;42.72;101277.16;5037713;28;823;-59
2021/05/11 05:11:41;;;;;;;;;;;;;;;21.22;42.88;101281.38;5037266;28;1913;-44
2021/05/11 05:14:07;;;;;;;;;;;;;;;21.33;42.85;101279.34;5037648;28;840;-45
2021/05/11 05:16:32;;;;;;;;;;;;;;;21.39;42.51;101280.91;5037361;28;732;-55
2021/05/11 05:18:58;;;;;;;;;;;;;;;21.36;42.70;101282.34;5036935;28;756;-44
2021/05/11 05:21:23;;;;;;;;;;;;;;;21.48;42.29;101276.38;5036949;28;1036;-44
2021/05/11 05:23:59;;;;;;;;;;;;;;;21.59;42.07;101281.81;5037142;28;776;-46
2021/05/11 05:26:26;;;;;;;;;;;;;;;21.59;42.46;101282.66;5036999;28;780;-45
2021/05/11 05:28:52;;;;;;;;;;;;;;;21.52;42.24;101283.03;5037400;28;756;-45
2021/05/11 05:31:18;;;;;;;;;;;;;;;21.57;42.21;101275.78;5037184;28;1914;-54
2021/05/11 05:33:43;;;;;;;;;;;;;;;21.81;41.86;101279.34;5037268;28;1136;-56
2021/05/11 05:36:08;;;;;;;;;;;;;;;21.92;41.54;101282.78;5036851;28;951;-59
2021/05/11 05:38:36;;;;;;;;;;;;;;;21.91;41.65;101278.38;5036051;28;1027;-48
2021/05/11 05:41:05;;;;;;;;;;;;;;;21.79;41.81;101281.56;5035683;28;929;-46
2021/05/11 05:43:31;;;;;;;;;;;;;;;21.97;41.54;101277.19;5037171;28;744;-48
2021/05/11 05:45:56;;;;;;;;;;;;;;;21.90;41.53;101275.91;5036919;28;827;-53
2021/05/11 05:48:22;;;;;;;;;;;;;;;21.87;41.65;101283.69;5030497;28;1375;-55
2021/05/11 05:50:51;;;;;;;;;;;;;;;21.92;41.63;101284.72;5031710;28;871;-56
2021/05/11 05:53:23;;;;;;;;;;;;;;;21.86;41.64;101282.03;5035632;28;1985;-59
2021/05/11 05:55:49;;;;;;;;;;;;;;;22.00;41.62;101282.13;5036542;28;775;-59
2021/05/11 05:58:14;;;;;;;;;;;;;;;21.97;41.77;101271.66;5036936;28;795;-46
2021/05/11 06:00:40;;;;;;;;;;;;;;;21.74;41.97;101272.50;5037158;28;775;-57
2021/05/11 06:03:07;;;;;;;;;;;;;;;21.58;42.55;101274.66;5036610;28;755;-56
2021/05/11 06:05:33;;;;;;;;;;;;;;;21.65;42.39;101281.47;5036162;28;962;-57
2021/05/11 06:07:58;;;;;;;;;;;;;;;21.64;42.44;101274.31;5036704;28;784;-46
2021/05/11 06:10:28;;;;;;;;;;;;;;;21.39;42.74;101269.84;5036513;28;756;-46
2021/05/11 06:12:57;;;;;;;;;;;;;;;21.01;43.65;101270.56;5034664;28;1917;-58
2021/05/11 06:18:07;;;;;;;;;;;;;;;21.17;43.34;101273.97;5049154;28;764;-59
2021/05/11 06:20:32;;;;;;;;;;;;;;;21.34;43.32;101273.50;5050678;28;1141;-58
2021/05/11 06:22:58;;;;;;;;;;;;;;;21.12;43.68;101271.25;5034620;28;851;-59
2021/05/11 06:25:23;;;;;;;;;;;;;;;21.25;43.43;101277.22;5035923;28;820;-47
2021/05/11 06:27:54;;;;;;;;;;;;;;;21.48;42.76;101276.38;5036245;28;784;-60
2021/05/11 06:30:20;;;;;;;;;;;;;;;21.50;42.76;101265.88;5031103;28;1536;-46
2021/05/11 06:32:46;;;;;;;;;;;;;;;21.78;42.17;101271.63;5030613;28;1914;-58
2021/05/11 06:35:11;;;;;;;;;;;;;;;21.67;42.57;101268.19;5034033;28;924;-49
2021/05/11 06:37:37;;;;;;;;;;;;;;;21.66;42.22;101265.72;5036109;28;779;-46
2021/05/11 06:40:02;;;;;;;;;;;;;;;21.58;42.53;101267.19;5035660;28;732;-43
2021/05/11 06:42:29;;;;;;;;;;;;;;;21.81;42.09;101257.19;5036158;28;729;-45
2021/05/11 06:47:49;;;;;;;;;;;;;;;21.94;41.74;101261.16;5035704;28;748;-51
2021/05/11 06:55:25;;;;;;;;;;;;;;;22.17;41.31;101264.16;5035487;28;744;-45
2021/05/11 06:57:50;;;;;;;;;;;;;;;22.02;41.47;101267.97;5035988;28;787;-45
2021/05/11 07:00:16;;;;;;;;;;;;;;;22.01;41.70;101263.56;5033872;28;732;-49
2021/05/11 07:02:42;;;;;;;;;;;;;;;21.75;42.02;101258.38;5034782;28;768;-45
2021/05/11 07:05:07;;;;;;;;;;;;;;;21.62;42.68;101264.66;5035423;28;994;-60
2021/05/11 07:07:35;;;;;;;;;;;;;;;21.31;43.16;101253.94;5035337;28;741;-58
2021/05/11 07:10:11;;;;;;;;;;;;;;;21.16;43.42;101264.03;5035654;28;771;-45
2021/05/11 07:15:21;;;;;;;;;;;;;;;21.30;43.27;101247.56;5035655;28;799;-45
2021/05/11 07:17:46;;;;;;;;;;;;;;;21.15;43.46;101251.34;5033748;28;768;-46
2021/05/11 07:20:12;;;;;;;;;;;;;;;21.14;43.65;101249.69;5035525;28;1012;-56
2021/05/11 07:22:37;;;;;;;;;;;;;;;21.14;43.56;101266.28;5034173;28;1283;-46
2021/05/11 07:25:06;;;;;;;;;;;;;;;21.51;42.88;101253.66;5055828;28;808;-57
2021/05/11 07:27:45;;;;;;;;;;;;;;;21.63;42.56;101261.59;5039127;28;1274;-51
2021/05/11 07:30:13;;;;;;;;;;;;;;;22.05;41.68;101257.13;5033556;28;1404;-45
2021/05/11 07:32:40;;;;;;;;;;;;;;;21.99;41.54;101257.50;5018333;28;1981;-46
2021/05/11 07:35:06;;;;;;;;;;;;;;;22.27;40.91;101265.97;5035304;28;1112;-46
2021/05/11 07:37:32;;;;;;;;;;;;;;;22.30;40.79;101262.56;5035162;28;771;-44
2021/05/11 07:39:57;;;;;;;;;;;;;;;22.32;41.10;101260.34;5035257;28;779;-59
2021/05/11 07:42:22;;;;;;;;;;;;;;;21.99;41.60;101263.03;5038605;28;943;-56
2021/05/11 07:44:51;;;;;;;;;;;;;;;21.65;42.44;101251.03;5039417;28;768;-57
2021/05/11 07:48:06;;;;;;;;;;;;;;;21.39;42.95;101256.00;5038793;28;1111;-46
2021/05/11 08:04:15;;;;;;;;;;;;;;;22.33;40.70;101257.31;5051753;28;775;-45
2021/05/11 08:17:18;;;;;;;;;;;;;;;22.00;41.54;101254.44;5038343;28;820;-59
2021/05/11 08:20:34;;;;;;;;;;;;;;;22.27;41.11;101246.56;5054034;28;1122;-46
2021/05/11 08:27:48;;;;;;;;;;;;;;;21.64;42.41;101252.16;5037887;28;1007;-59
2021/05/11 08:30:13;;;;;;;;;;;;;;;21.35;43.08;101243.91;5038547;28;761;-59
2021/05/11 08:32:39;;;;;;;;;;;;;;;21.65;42.56;101252.97;5038248;28;1906;-51
2021/05/11 08:35:06;;;;;;;;;;;;;;;21.94;41.79;101250.09;5038070;28;852;-47
2021/05/11 08:37:31;;;;;;;;;;;;;;;22.13;41.37;101252.88;5038554;28;755;-59
2021/05/11 08:39:57;;;;;;;;;;;;;;;22.24;41.27;101252.72;5038259;28;1494;-45
2021/05/11 08:42:22;;;;;;;;;;;;;;;22.33;40.95;101253.66;5029955;28;1383;-58
2021/05/11 08:44:48;;;;;;;;;;;;;;;22.03;41.38;101256.63;5036874;28;1114;-45
2021/05/11 08:47:17;;;;;;;;;;;;;;;21.77;42.08;101260.84;5038113;28;800;-56
2021/05/11 08:49:43;;;;;;;;;;;;;;;21.45;42.47;101249.31;5036871;28;815;-58
2021/05/11 08:52:22;;;;;;;;;;;;;;;21.51;42.55;101255.63;5037104;28;1975;-58
2021/05/11 08:55:03;;;;;;;;;;;;;;;21.93;41.70;101253.16;5038358;28;744;-45
2021/05/11 09:25:27;;;;;;;;;;;;;;;21.76;41.39;101226.81;5037320;28;832;-47
2021/05/11 09:28:05;;;;;;;;;;;;;;;21.84;41.59;101228.09;5037230;28;951;-51
2021/05/11 09:31:20;;;;;;;;;;;;;;;22.15;40.91;101224.88;5037492;28;755;-46
2021/05/11 09:58:10;;;;;;;;;;;;;;;21.70;41.65;101201.16;5032091;28;829;-45
2021/05/11 10:13:27;;;;;;;;;;;;;;;22.31;39.99;101198.56;5035018;28;1898;-58
2021/05/11 10:48:14;;;;;;;;;;;;;;;21.97;41.08;101196.06;5035475;28;768;-46
2021/05/11 10:50:42;;;;;;;;;;;;;;;22.14;40.75;101199.09;5051577;28;1214;-49
2021/05/11 10:53:26;;;;;;;;;;;;;;;22.24;40.38;101187.03;5035804;28;1981;-45
2021/05/11 10:55:51;;;;;;;;;;;;;;;22.01;41.08;101188.81;5035440;28;815;-45
2021/05/11 10:58:21;;;;;;;;;;;;;;;21.59;42.07;101182.19;5035964;28;971;-47
2021/05/11 11:00:57;;;;;;;;;;;;;;;21.37;42.26;101180.81;5036114;28;803;-44
2021/05/11 11:03:23;;;;;;;;;;;;;;;21.44;42.33;101189.56;5035830;28;815;-44
2021/05/11 11:05:54;;;;;;;;;;;;;;;21.77;41.56;101189.72;5035943;28;835;-43
2021/05/11 11:08:26;;;;;;;;;;;;;;;22.02;40.98;101193.19;5035918;28;784;-43
2021/05/11 11:10:52;;;;;;;;;;;;;;;22.24;40.64;101183.47;5035655;28;736;-58
2021/05/11 11:13:18;;;;;;;;;;;;;;;22.35;40.31;101176.66;5050833;28;1993;-45
2021/05/11 11:15:43;;;;;;;;;;;;;;;22.51;39.67;101180.81;5035894;28;1248;-56
2021/05/11 11:18:09;;;;;;;;;;;;;;;21.88;41.13;101180.13;5039533;28;748;-45
2021/05/11 11:20:39;;;;;;;;;;;;;;;21.72;41.68;101180.66;5039708;28;1045;-48
2021/05/11 11:25:59;;;;;;;;;;;;;;;21.70;41.75;101172.66;5039355;28;748;-47
2021/05/11 11:28:28;;;;;;;;;;;;;;;21.94;40.96;101171.75;5039373;28;955;-48
2021/05/11 11:30:53;;;;;;;;;;;;;;;22.01;40.93;101166.66;5039713;28;755;-57
2021/05/11 11:33:19;;;;;;;;;;;;;;;22.24;40.39;101169.63;5039461;28;1971;-57
2021/05/11 11:35:44;;;;;;;;;;;;;;;22.30;40.15;101162.84;5039624;28;780;-49
2021/05/11 11:38:11;;;;;;;;;;;;;;;22.34;40.04;101166.69;5039595;28;794;-56
2021/05/11 11:40:36;;;;;;;;;;;;;;;22.43;39.78;101167.66;5039687;28;720;-46
2021/05/11 11:43:01;;;;;;;;;;;;;;;22.02;40.58;101166.34;5039320;28;1025;-56
2021/05/11 11:45:27;;;;;;;;;;;;;;;21.91;41.04;101161.25;5039295;28;795;-48
2021/05/11 11:47:56;;;;;;;;;;;;;;;21.40;41.94;101158.09;5036566;28;768;-56
2021/05/11 11:50:22;;;;;;;;;;;;;;;21.72;41.38;101162.09;5039186;28;878;-48
2021/05/11 11:55:34;;;;;;;;;;;;;;;22.11;40.43;101155.41;5037309;28;1221;-61
2021/05/11 11:58:00;;;;;;;;;;;;;;;22.33;39.88;101153.91;5038138;28;883;-48
2021/05/11 12:00:29;;;;;;;;;;;;;;;22.48;39.53;101145.41;5039115;28;740;-56
2021/05/11 12:03:09;;;;;;;;;;;;;;;22.49;39.69;101143.44;5038390;28;764;-51
2021/05/11 12:05:36;;;;;;;;;;;;;;;21.81;41.08;101143.72;5053866;28;780;-47
2021/05/11 12:10:43;;;;;;;;;;;;;;;21.42;41.84;101130.97;5038609;28;827;-59
2021/05/11 12:13:10;;;;;;;;;;;;;;;21.73;41.46;101133.31;5038498;28;1978;-60
2021/05/11 12:15:35;;;;;;;;;;;;;;;22.10;40.42;101128.03;5038301;28;530;-50
2021/05/11 12:18:02;;;;;;;;;;;;;;;22.40;39.84;101132.25;5038361;28;827;-48
2021/05/11 12:20:27;;;;;;;;;;;;;;;22.38;39.78;101131.72;5038409;28;1012;-53
2021/05/11 12:23:06;;;;;;;;;;;;;;;22.41;39.83;101120.00;5037886;28;1071;-56
2021/05/11 12:25:32;;;;;;;;;;;;;;;22.06;40.61;101122.25;5037612;28;812;-49
2021/05/11 12:27:57;;;;;;;;;;;;;;;21.72;41.43;101122.53;5036827;28;920;-48
2021/05/11 12:30:36;;;;;;;;;;;;;;;21.31;42.19;101110.09;5037964;28;831;-53
2021/05/11 12:33:02;;;;;;;;;;;;;;;21.64;41.45;101113.81;5037422;28;1909;-49
2021/05/11 12:35:28;;;;;;;;;;;;;;;22.01;40.60;101111.28;5038257;28;748;-60
2021/05/11 12:37:54;;;;;;;;;;;;;;;22.16;40.35;101112.94;5035361;28;825;-53
2021/05/11 12:40:26;;;;;;;;;;;;;;;22.26;40.06;101106.41;5038498;28;855;-60
2021/05/11 12:42:52;;;;;;;;;;;;;;;22.48;39.58;101103.84;5036821;28;966;-46
2021/05/11 12:45:18;;;;;;;;;;;;;;;22.46;39.66;101096.94;5037683;28;780;-44
2021/05/11 12:47:46;;;;;;;;;;;;;;;21.88;40.85;101101.78;5038211;28;836;-59
2021/05/11 12:50:13;;;;;;;;;;;;;;;21.64;41.46;101101.88;5038058;28;732;-46
2021/05/11 12:52:38;;;;;;;;;;;;;;;21.32;42.31;101101.50;5037488;28;1979;-57
2021/05/11 12:55:05;;;;;;;;;;;;;;;21.52;41.85;101107.88;5038198;28;832;-57
2021/05/11 12:57:33;;;;;;;;;;;;;;;21.91;40.74;101103.97;5037539;28;958;-45
2021/05/11 13:00:05;;;;;;;;;;;;;;;22.15;40.29;101100.25;5037047;28;776;-57
2021/05/11 13:03:03;;;;;;;;;;;;;;;22.29;40.10;101100.28;5037869;28;804;-44
2021/05/11 13:16:27;;;;;;;;;;;;;;;21.53;41.88;101090.97;5037366;28;826;-57
2021/05/11 13:29:55;;;;;;;;;;;;;;;22.36;40.04;101073.03;5037060;28;756;-45
2021/05/11 13:32:29;;;;;;;;;;;;;;;22.12;40.30;101068.44;5037092;28;1901;-45
2021/05/11 13:34:54;;;;;;;;;;;;;;;22.33;39.85;101065.28;5036797;28;799;-46
2021/05/11 13:37:26;;;;;;;;;;;;;;;22.37;40.02;101063.56;5036662;28;764;-44
2021/05/11 13:39:51;;;;;;;;;;;;;;;22.52;39.60;101068.81;5036876;28;768;-47
2021/05/11 13:42:17;;;;;;;;;;;;;;;21.84;41.00;101070.31;5036866;28;927;-45
2021/05/11 13:44:42;;;;;;;;;;;;;;;21.77;41.26;101062.38;5036180;28;783;-46
2021/05/11 13:47:08;;;;;;;;;;;;;;;21.29;42.41;101051.47;5036363;28;776;-47
2021/05/11 13:49:33;;;;;;;;;;;;;;;21.68;41.44;101053.94;5036989;28;819;-46
2021/05/11 13:51:58;;;;;;;;;;;;;;;22.04;40.63;101056.09;5036430;28;1967;-57
2021/05/11 13:54:24;;;;;;;;;;;;;;;22.15;40.27;101044.84;5035992;28;757;-57
2021/05/11 14:04:42;;;;;;;;;;;;;;;22.48;39.62;101044.81;5036047;28;805;-57
2021/05/11 14:07:07;;;;;;;;;;;;;;;22.31;40.27;101045.38;5036040;28;760;-50
2021/05/11 14:09:33;;;;;;;;;;;;;;;22.48;39.65;101037.31;5036641;28;843;-50
2021/05/11 14:11:58;;;;;;;;;;;;;;;21.77;41.32;101048.56;5036326;28;1914;-46
2021/05/11 14:14:24;;;;;;;;;;;;;;;21.61;41.96;101039.66;5036119;28;788;-48
2021/05/11 14:16:49;;;;;;;;;;;;;;;21.29;42.65;101043.97;5036371;28;595;-44
2021/05/11 14:19:15;;;;;;;;;;;;;;;21.74;41.53;101035.31;5035940;28;815;-47
2021/05/11 14:21:40;;;;;;;;;;;;;;;21.88;41.06;101035.34;5035735;28;1073;-48
2021/05/11 14:24:06;;;;;;;;;;;;;;;22.16;40.66;101036.25;5036281;28;808;-56
2021/05/11 14:26:32;;;;;;;;;;;;;;;22.26;40.40;101039.91;5036378;28;805;-44
2021/05/11 14:28:57;;;;;;;;;;;;;;;22.26;40.33;101035.22;5035189;28;947;-47
2021/05/11 14:31:25;;;;;;;;;;;;;;;22.40;39.90;101029.72;5036183;28;1979;-46
2021/05/11 14:33:51;;;;;;;;;;;;;;;21.78;41.59;101036.34;5036340;28;807;-47
2021/05/11 14:36:17;;;;;;;;;;;;;;;22.19;40.57;101027.31;5035749;28;828;-56
2021/05/11 14:38:42;;;;;;;;;;;;;;;22.37;40.29;101019.22;5036093;28;991;-51
2021/05/11 14:41:09;;;;;;;;;;;;;;;22.46;39.89;101022.13;5036365;28;780;-45
2021/05/11 14:43:34;;;;;;;;;;;;;;;21.89;41.13;101020.38;5035440;28;954;-47
2021/05/11 14:46:03;;;;;;;;;;;;;;;21.66;41.91;101013.88;5035982;28;765;-57
2021/05/11 14:48:33;;;;;;;;;;;;;;;21.54;42.15;101017.09;5035189;28;852;-43
2021/05/11 14:50:58;;;;;;;;;;;;;;;21.74;41.77;101021.47;5034813;28;883;-47
2021/05/11 14:53:24;;;;;;;;;;;;;;;22.10;40.67;101009.75;5035960;28;1910;-57
2021/05/11 14:55:49;;;;;;;;;;;;;;;22.13;40.68;101011.94;5036128;28;811;-60
2021/05/11 14:58:15;;;;;;;;;;;;;;;22.28;40.41;100998.91;5035297;28;966;-46
2021/05/11 15:00:40;;;;;;;;;;;;;;;22.17;40.60;101007.38;5035829;28;1107;-50
2021/05/11 15:03:06;;;;;;;;;;;;;;;22.31;40.31;101009.38;5036075;28;820;-43
2021/05/11 15:05:31;;;;;;;;;;;;;;;22.36;40.25;101001.00;5035625;28;768;-59
2021/05/11 15:07:56;;;;;;;;;;;;;;;22.44;40.15;100997.50;5035802;28;847;-57
2021/05/11 15:10:22;;;;;;;;;;;;;;;22.52;39.80;100996.75;5036350;28;930;-56
2021/05/11 15:12:49;;;;;;;;;;;;;;;22.37;40.13;101002.59;5035821;28;1969;-45
2021/05/11 15:15:20;;;;;;;;;;;;;;;21.93;41.00;100992.91;5035625;28;831;-47
2021/05/11 15:20:12;;;;;;;;;;;;;;;21.40;42.36;100996.81;5035678;28;1100;-50
2021/05/11 15:22:37;;;;;;;;;;;;;;;21.64;42.03;100996.72;5034490;28;1088;-44
2021/05/11 15:25:03;;;;;;;;;;;;;;;22.07;41.03;100987.41;5035757;28;796;-57
2021/05/11 15:27:29;;;;;;;;;;;;;;;22.05;40.89;100990.47;5034146;28;959;-57
2021/05/11 15:29:54;;;;;;;;;;;;;;;22.12;40.88;100981.75;5034781;28;740;-45
2021/05/11 15:32:36;;;;;;;;;;;;;;;22.21;40.63;100989.03;5034662;28;1906;-46
2021/05/11 15:35:02;;;;;;;;;;;;;;;21.86;41.33;100985.81;5035363;28;1218;-46
2021/05/11 15:37:28;;;;;;;;;;;;;;;22.05;40.89;100985.75;5035116;28;847;-59
2021/05/11 15:39:53;;;;;;;;;;;;;;;22.08;41.01;100983.47;5035569;28;796;-60
2021/05/11 15:42:18;;;;;;;;;;;;;;;21.94;41.28;100981.53;5035669;28;1005;-45
2021/05/11 15:44:44;;;;;;;;;;;;;;;21.51;42.29;100976.97;5035924;28;744;-53
2021/05/11 15:47:09;;;;;;;;;;;;;;;21.10;43.02;100983.16;5035507;28;783;-51
2021/05/11 15:49:35;;;;;;;;;;;;;;;21.12;43.33;100980.91;5035887;28;756;-45
2021/05/11 15:52:00;;;;;;;;;;;;;;;20.86;43.87;100980.47;5035456;28;1914;-57
2021/05/11 15:54:26;;;;;;;;;;;;;;;20.90;43.96;100973.25;5035875;28;799;-45
2021/05/11 15:56:51;;;;;;;;;;;;;;;20.98;43.54;100974.50;5035044;28;976;-57
2021/05/11 15:59:16;;;;;;;;;;;;;;;21.33;42.67;100970.34;5035205;28;815;-45
2021/05/11 16:01:42;;;;;;;;;;;;;;;21.50;42.15;100972.59;5036394;28;768;-56
2021/05/11 16:04:07;;;;;;;;;;;;;;;21.66;41.81;100969.59;5054454;28;1402;-45
2021/05/11 16:06:33;;;;;;;;;;;;;;;21.86;41.42;100977.50;5038833;28;736;-58
2021/05/11 16:08:58;;;;;;;;;;;;;;;22.02;41.08;100982.75;5038929;28;776;-59
2021/05/11 16:11:24;;;;;;;;;;;;;;;21.95;41.21;100969.34;5039003;28;1972;-59
2021/05/11 16:13:49;;;;;;;;;;;;;;;22.20;40.86;100979.09;5038341;28;1006;-45
2021/05/11 16:16:15;;;;;;;;;;;;;;;22.29;40.46;100962.59;5038572;28;760;-48
2021/05/11 16:18:41;;;;;;;;;;;;;;;22.15;40.54;100965.34;5038882;28;768;-45
2021/05/11 16:21:06;;;;;;;;;;;;;;;22.19;40.67;100969.16;5037899;28;1041;-59
2021/05/11 16:23:32;;;;;;;;;;;;;;;22.37;40.28;100972.13;5036683;28;1144;-58
2021/05/11 16:25:57;;;;;;;;;;;;;;;22.32;40.25;100961.16;5038592;28;852;-45
2021/05/11 16:28:22;;;;;;;;;;;;;;;22.21;40.58;100964.09;5038127;28;1015;-60
2021/05/11 16:30:48;;;;;;;;;;;;;;;21.84;41.48;100967.88;5038423;28;737;-60
2021/05/11 16:33:14;;;;;;;;;;;;;;;21.80;41.43;100967.66;5020973;28;1899;-58
2021/05/11 16:35:39;;;;;;;;;;;;;;;21.33;42.70;100964.00;5038082;28;768;-58
2021/05/11 16:38:05;;;;;;;;;;;;;;;21.37;42.49;100965.03;5038372;28;808;-48
2021/05/11 16:40:31;;;;;;;;;;;;;;;21.85;41.42;100964.81;5038383;28;840;-48
2021/05/11 16:42:57;;;;;;;;;;;;;;;22.02;40.97;100961.44;5037649;28;954;-59
2021/05/11 16:45:22;;;;;;;;;;;;;;;21.95;41.18;100965.72;5038102;28;795;-59
2021/05/11 16:47:54;;;;;;;;;;;;;;;22.13;40.83;100961.25;5020444;28;792;-45
2021/05/11 16:50:29;;;;;;;;;;;;;;;22.11;40.80;100961.56;5036494;28;764;-60
2021/05/11 16:52:55;;;;;;;;;;;;;;;22.15;40.53;100956.22;5038089;28;1910;-44